EDT,Max TemperatureF,Mean TemperatureF,Min TemperatureF,Max Dew PointF,MeanDew PointF,Min DewpointF,Max Humidity, Mean Humidity, Min Humidity, Max Sea Level PressureIn, Mean Sea Level PressureIn, Min Sea Level PressureIn, Max VisibilityMiles, Mean VisibilityMiles, Min VisibilityMiles, Max Wind SpeedMPH, Mean Wind SpeedMPH, Max Gust SpeedMPH,PrecipitationIn, CloudCover, Events, WindDirDegrees
2014-3-1,45,31,16,23,13,-1,75,53,31,30.18,30.14,30.08,10,9,3,17,8,22,T,7,,219
2014-3-2,25,17,8,19,9,-3,84,69,53,30.28,30.20,30.13,10,4,1,16,10,20,0.09,8,Snow,353
2014-3-3,14,5,-4,-2,-5,-8,79,64,48,30.46,30.38,30.28,10,10,10,14,8,20,0.00,4,,355
2014-3-4,26,11,-5,9,-4,-10,82,55,27,30.43,30.32,30.22,10,10,10,8,3,12,0.00,8,,144
2014-3-5,24,19,14,11,6,-2,67,55,43,30.48,30.36,30.22,10,10,10,18,9,24,0.00,6,,12
2014-3-6,36,25,13,15,8,-1,67,54,40,30.48,30.37,30.20,10,10,10,20,12,24,0.00,4,,106
2014-3-7,51,37,22,29,22,13,77,59,41,30.19,30.06,29.93,10,10,10,14,7,20,0.00,1,,153
2014-3-8,38,30,22,32,27,17,92,78,64,30.12,30.01,29.91,10,5,1,14,7,17,0.11,7,Rain-Snow,308
2014-3-9,37,25,12,23,17,9,92,70,48,30.24,30.13,29.90,10,10,7,16,8,22,0.00,6,,242
2014-3-10,55,46,36,37,30,23,70,60,50,29.90,29.75,29.62,10,10,7,23,12,28,0.00,6,,230
2014-3-11,63,51,38,39,36,30,92,62,32,29.71,29.68,29.64,10,7,3,14,6,18,T,7,Rain,259
2014-3-12,42,26,9,37,24,5,100,85,70,29.86,29.51,29.21,10,3,0,35,16,48,0.51,8,Fog-Rain-Snow,349
2014-3-13,25,14,3,10,2,-4,80,59,28,30.15,30.05,29.82,10,10,4,20,13,28,0.00,5,Snow,287
2014-3-14,58,42,26,39,24,12,57,45,32,30.09,29.86,29.68,10,10,5,32,15,41,0.04,7,Rain-Thunderstorm,210
2014-3-15,44,35,26,39,28,20,82,68,53,30.19,29.94,29.72,10,10,10,22,11,30,0.00,7,,281
2014-3-16,26,21,16,18,9,5,74,60,45,30.34,30.25,30.15,10,10,10,17,11,24,0.00,6,,18
2014-3-17,40,26,12,18,11,4,76,57,37,30.12,30.01,29.91,10,10,10,14,9,18,0.00,3,,88
2014-3-18,51,38,24,31,25,17,81,63,44,30.06,30.02,29.97,10,10,10,20,10,28,0.00,4,,121
2014-3-19,48,42,35,45,38,24,93,76,59,29.98,29.80,29.70,10,7,2,24,13,33,0.26,8,Rain,187
2014-3-20,39,35,30,34,27,22,85,74,63,30.04,29.92,29.82,10,6,0,24,11,32,0.03,8,Snow,265
2014-3-21,42,33,23,30,24,20,81,69,57,30.13,30.04,29.84,10,10,7,15,5,20,T,5,Snow,145
2014-3-22,49,41,32,36,29,24,82,66,50,30.13,29.95,29.68,10,10,6,24,10,33,T,8,Rain,288
2014-3-23,34,25,15,27,14,6,75,63,50,30.36,30.24,30.12,10,10,7,21,12,29,T,7,Snow,332
2014-3-24,30,22,13,11,9,6,88,65,42,30.35,30.26,30.13,10,10,10,18,6,24,T,6,,247
2014-3-25,37,25,12,22,13,4,88,58,28,30.10,29.98,29.89,10,7,1,21,7,26,0.05,6,Snow,281
2014-3-26,27,17,7,18,8,2,84,63,42,30.33,30.22,30.00,10,9,0,21,9,24,T,4,Snow,326
2014-3-27,50,33,15,31,15,7,67,46,25,30.32,30.13,29.86,10,10,6,15,10,23,0.16,6,Rain,155
2014-3-28,58,46,34,46,37,24,85,60,35,30.18,29.91,29.76,10,10,7,33,14,47,0.01,8,Rain,228
2014-3-29,49,40,31,37,31,28,96,81,65,30.19,29.99,29.84,10,7,1,25,12,36,0.61,7,Rain-Snow,21
2014-3-30,42,36,29,28,24,21,92,71,49,30.14,30.02,29.90,10,8,2,24,15,31,0.06,5,Rain-Snow,328
2014-3-31,59,42,24,22,18,10,75,45,15,30.24,30.17,30.11,10,10,10,8,2,18,0.00,2,,41